Time;durP1;ratioP1;P1;durP2;ratioP2;P2;SDS_P1;SDS_P2;PMS_P1;PMS_P2;Temp;Humidity;BMP_temperature;BMP_pressure;BME280_temperature;BME280_humidity;BME280_pressure;Samples;Min_cycle;Max_cycle;Signal;HPM_P1;HPM_P2
2022/08/06 00:01:50;;;;;;;;;;;;;;;17.75;52.15;102022.97;5033575;28;19927;-78
2022/08/06 00:04:16;;;;;;;;;;;;;;;17.78;52.30;102029.00;5052789;28;20446;-77
2022/08/06 00:06:41;;;;;;;;;;;;;;;17.67;52.85;102027.63;5032049;28;19920;-77
2022/08/06 00:09:06;;;;;;;;;;;;;;;17.66;51.96;102024.13;5053667;28;19969;-77
2022/08/06 00:11:32;;;;;;;;;;;;;;;17.70;52.37;102025.78;5015040;28;19920;-77
2022/08/06 00:13:57;;;;;;;;;;;;;;;17.76;52.25;102027.34;5016973;28;19921;-77
2022/08/06 00:16:22;;;;;;;;;;;;;;;17.72;52.52;102020.44;5035233;28;19925;-77
2022/08/06 00:18:48;;;;;;;;;;;;;;;17.77;51.91;102021.19;5033477;28;19921;-77
2022/08/06 00:21:13;;;;;;;;;;;;;;;17.79;51.44;102030.75;5032811;28;19982;-77
2022/08/06 00:23:38;;;;;;;;;;;;;;;17.79;51.83;102036.00;5013134;28;19932;-77
2022/08/06 00:26:04;;;;;;;;;;;;;;;17.60;54.14;102037.44;5050237;28;20395;-77
2022/08/06 00:28:29;;;;;;;;;;;;;;;17.57;54.65;102035.75;5035503;28;20436;-77
2022/08/06 00:30:54;;;;;;;;;;;;;;;17.44;55.13;102034.38;5011678;28;19924;-77
2022/08/06 00:33:20;;;;;;;;;;;;;;;17.50;53.60;102041.25;5028512;28;19925;-77
2022/08/06 00:35:45;;;;;;;;;;;;;;;17.46;55.02;102045.72;5027216;28;19974;-77
2022/08/06 00:38:10;;;;;;;;;;;;;;;17.45;54.16;102046.63;5028255;28;20359;-77
2022/08/06 00:40:36;;;;;;;;;;;;;;;17.40;54.59;102042.41;5047360;28;20373;-77
2022/08/06 00:43:02;;;;;;;;;;;;;;;17.31;53.78;102038.28;5028884;28;20347;-77
2022/08/06 00:45:30;;;;;;;;;;;;;;;17.26;54.12;102042.81;5030279;28;19940;-77
2022/08/06 00:47:56;;;;;;;;;;;;;;;17.27;54.45;102043.66;5031970;28;19929;-77
2022/08/06 00:50:21;;;;;;;;;;;;;;;17.40;55.08;102050.28;5042338;28;19928;-77
2022/08/06 00:52:46;;;;;;;;;;;;;;;17.28;54.72;102048.00;5045896;28;19928;-77
2022/08/06 00:55:12;;;;;;;;;;;;;;;17.29;54.99;102047.97;5027266;28;20017;-77
2022/08/06 00:57:38;;;;;;;;;;;;;;;17.28;54.59;102045.38;5046448;28;19916;-77
2022/08/06 01:00:04;;;;;;;;;;;;;;;17.34;53.64;102042.59;5047976;28;19931;-77
2022/08/06 01:02:29;;;;;;;;;;;;;;;17.33;53.25;102046.97;5049851;28;19921;-77
2022/08/06 01:04:55;;;;;;;;;;;;;;;17.41;54.01;102052.84;5029548;28;19924;-77
2022/08/06 01:07:20;;;;;;;;;;;;;;;17.31;54.34;102055.81;5029073;28;19996;-77
2022/08/06 01:09:45;;;;;;;;;;;;;;;17.37;53.69;102058.25;5041152;28;19917;-77
2022/08/06 01:12:10;;;;;;;;;;;;;;;17.25;53.77;102054.22;5044893;28;20004;-77
2022/08/06 01:14:36;;;;;;;;;;;;;;;17.17;53.34;102053.56;5029711;28;19925;-77
2022/08/06 01:17:04;;;;;;;;;;;;;;;17.23;53.73;102055.16;5036895;28;19928;-77
2022/08/06 01:19:46;;;;;;;;;;;;;;;17.24;53.58;102062.13;5028931;28;20016;-77
2022/08/06 01:22:36;;;;;;;;;;;;;;;17.06;54.25;102060.88;5049829;28;19932;-77
2022/08/06 01:25:08;;;;;;;;;;;;;;;17.04;53.69;102062.69;5045737;28;20388;-77
2022/08/06 01:27:36;;;;;;;;;;;;;;;17.15;53.08;102059.75;5027301;28;20411;-77
2022/08/06 01:30:11;;;;;;;;;;;;;;;17.17;53.08;102060.59;5044589;28;19917;-77
2022/08/06 01:32:40;;;;;;;;;;;;;;;17.02;53.20;102068.00;5046503;28;19964;-77
2022/08/06 01:35:07;;;;;;;;;;;;;;;17.00;53.47;102064.53;5048334;28;19917;-77
2022/08/06 01:37:38;;;;;;;;;;;;;;;16.98;53.04;102062.84;5043540;28;19925;-77
2022/08/06 01:40:07;;;;;;;;;;;;;;;16.85;53.21;102069.31;5048849;28;19932;-77
2022/08/06 01:42:33;;;;;;;;;;;;;;;16.87;54.37;102076.28;5042524;28;19921;-77
2022/08/06 01:45:01;;;;;;;;;;;;;;;16.89;53.32;102070.97;5047431;28;19970;-77
2022/08/06 01:47:27;;;;;;;;;;;;;;;16.89;54.03;102082.34;5058543;28;19970;-77
2022/08/06 01:49:55;;;;;;;;;;;;;;;16.74;54.21;102074.84;5038924;28;19925;-77
2022/08/06 01:52:21;;;;;;;;;;;;;;;16.96;54.10;102078.66;5034633;28;19928;-77
2022/08/06 01:54:49;;;;;;;;;;;;;;;16.74;54.61;102077.47;5034522;28;20303;-77
2022/08/06 01:57:17;;;;;;;;;;;;;;;16.80;53.16;102074.69;5042888;28;19936;-77
2022/08/06 01:59:44;;;;;;;;;;;;;;;16.71;53.39;102081.94;5028151;28;19939;-77
2022/08/06 02:02:13;;;;;;;;;;;;;;;16.78;53.25;102086.13;5059200;28;19928;-77
2022/08/06 02:04:40;;;;;;;;;;;;;;;16.74;53.66;102087.09;5046056;28;19975;-77
2022/08/06 02:07:06;;;;;;;;;;;;;;;16.77;53.83;102087.03;5031047;28;19921;-77
2022/08/06 02:09:33;;;;;;;;;;;;;;;16.75;53.18;102092.34;5029093;28;19917;-77
2022/08/06 02:12:04;;;;;;;;;;;;;;;16.73;53.73;102088.03;5030921;28;20037;-77
2022/08/06 02:14:31;;;;;;;;;;;;;;;16.75;53.54;102094.97;5051755;28;19963;-77
2022/08/06 02:16:58;;;;;;;;;;;;;;;16.52;53.80;102086.78;5046043;28;19928;-77
2022/08/06 02:19:24;;;;;;;;;;;;;;;16.46;54.01;102086.91;5049073;28;19968;-76
2022/08/06 02:21:51;;;;;;;;;;;;;;;16.65;53.97;102092.56;5050214;28;20366;-77
2022/08/06 02:24:17;;;;;;;;;;;;;;;16.59;53.34;102096.19;5045636;28;19999;-77
2022/08/06 02:26:44;;;;;;;;;;;;;;;16.46;53.91;102098.25;5014665;28;20396;-77
2022/08/06 02:29:11;;;;;;;;;;;;;;;16.52;53.70;102092.84;5027587;28;19920;-77
2022/08/06 02:31:36;;;;;;;;;;;;;;;16.47;53.45;102099.97;5047080;28;19981;-77
2022/08/06 02:34:01;;;;;;;;;;;;;;;16.55;53.71;102101.56;5050998;28;20023;-77
2022/08/06 02:36:32;;;;;;;;;;;;;;;16.50;54.01;102114.78;5037371;28;19924;-77
2022/08/06 02:39:10;;;;;;;;;;;;;;;16.48;53.42;102108.72;5029500;28;19925;-77
2022/08/06 02:41:36;;;;;;;;;;;;;;;16.57;54.00;102105.00;5055483;28;19995;-77
2022/08/06 02:44:23;;;;;;;;;;;;;;;16.72;53.71;102108.16;5041400;28;20589;-77
2022/08/06 02:46:52;;;;;;;;;;;;;;;16.73;54.31;102114.28;5029770;28;19921;-77
2022/08/06 02:49:26;;;;;;;;;;;;;;;16.55;54.26;102122.56;5047882;28;20100;-77
2022/08/06 02:51:55;;;;;;;;;;;;;;;16.65;54.25;102119.66;5032138;28;19933;-77
2022/08/06 02:54:28;;;;;;;;;;;;;;;16.46;55.41;102119.22;5048130;28;19913;-77
2022/08/06 02:56:58;;;;;;;;;;;;;;;16.47;54.95;102122.72;5048678;28;20046;-77
2022/08/06 02:59:27;;;;;;;;;;;;;;;16.43;54.83;102128.97;5045859;28;20385;-77
2022/08/06 03:01:57;;;;;;;;;;;;;;;16.59;55.00;102132.06;5027521;28;20400;-77
2022/08/06 03:04:23;;;;;;;;;;;;;;;16.58;55.18;102127.72;5042847;28;20386;-77
2022/08/06 03:06:49;;;;;;;;;;;;;;;16.40;55.92;102127.25;5030987;28;19923;-77
2022/08/06 03:09:16;;;;;;;;;;;;;;;16.47;54.99;102131.47;5044911;28;19916;-77
2022/08/06 03:11:41;;;;;;;;;;;;;;;16.50;54.82;102138.38;5028583;28;19928;-77
2022/08/06 03:14:08;;;;;;;;;;;;;;;16.68;54.61;102137.94;5027953;28;19921;-77
2022/08/06 03:16:34;;;;;;;;;;;;;;;16.41;54.86;102134.22;5044032;28;19924;-77
2022/08/06 03:19:00;;;;;;;;;;;;;;;16.01;55.92;102135.16;5045764;28;19924;-77
2022/08/06 03:21:27;;;;;;;;;;;;;;;16.08;55.87;102131.50;5049482;28;19923;-77
2022/08/06 03:23:53;;;;;;;;;;;;;;;16.24;55.24;102136.38;5025689;28;19921;-77
2022/08/06 03:26:19;;;;;;;;;;;;;;;16.25;55.73;102145.13;5032045;28;19920;-77
2022/08/06 03:28:44;;;;;;;;;;;;;;;16.33;55.23;102148.41;5030609;28;20306;-77
2022/08/06 03:31:10;;;;;;;;;;;;;;;16.34;55.31;102137.03;5043321;28;19925;-77
2022/08/06 03:33:36;;;;;;;;;;;;;;;16.24;55.67;102146.88;5027831;28;20396;-77
2022/08/06 03:36:02;;;;;;;;;;;;;;;16.16;56.21;102140.06;5049963;28;20274;-77
2022/08/06 03:38:30;;;;;;;;;;;;;;;16.29;55.22;102142.38;5049081;28;19933;-77
2022/08/06 03:40:57;;;;;;;;;;;;;;;16.33;55.42;102146.66;5044140;28;19925;-77
2022/08/06 03:43:22;;;;;;;;;;;;;;;16.40;55.30;102148.22;5046714;28;19928;-77
2022/08/06 03:45:50;;;;;;;;;;;;;;;16.10;55.79;102148.94;5028474;28;19925;-77
2022/08/06 03:48:17;;;;;;;;;;;;;;;16.12;55.89;102151.53;5026150;28;19921;-77
2022/08/06 03:50:43;;;;;;;;;;;;;;;16.21;55.40;102148.69;5031900;28;19931;-77
2022/08/06 03:53:12;;;;;;;;;;;;;;;16.12;55.49;102154.13;5025944;28;19990;-76
2022/08/06 03:55:38;;;;;;;;;;;;;;;16.07;55.45;102156.00;5044489;28;20050;-77
2022/08/06 03:58:09;;;;;;;;;;;;;;;16.04;55.91;102150.84;5027527;28;19921;-77
2022/08/06 04:00:38;;;;;;;;;;;;;;;15.94;56.74;102153.66;5024591;28;19924;-77
2022/08/06 04:03:04;;;;;;;;;;;;;;;15.93;56.88;102166.75;5032072;28;21442;-76
2022/08/06 04:05:31;;;;;;;;;;;;;;;15.86;56.96;102168.69;5031262;28;20012;-77
2022/08/06 04:08:02;;;;;;;;;;;;;;;15.85;56.79;102166.06;5041909;28;19924;-77
2022/08/06 04:10:30;;;;;;;;;;;;;;;15.92;56.75;102165.06;5044896;28;19931;-77
2022/08/06 04:12:56;;;;;;;;;;;;;;;15.73;56.91;102172.41;5045623;28;20015;-77
2022/08/06 04:15:21;;;;;;;;;;;;;;;15.71;57.74;102168.94;5045244;28;20325;-77
2022/08/06 04:17:47;;;;;;;;;;;;;;;15.67;57.95;102176.88;5034224;28;19920;-77
2022/08/06 04:20:14;;;;;;;;;;;;;;;15.62;57.54;102177.00;5030957;28;19932;-76
2022/08/06 04:22:40;;;;;;;;;;;;;;;15.97;56.74;102171.06;5021034;28;19921;-77
2022/08/06 04:25:05;;;;;;;;;;;;;;;15.91;56.81;102177.28;5025731;28;19931;-77
2022/08/06 04:27:31;;;;;;;;;;;;;;;15.92;56.83;102180.78;5046284;28;19967;-76
2022/08/06 04:29:58;;;;;;;;;;;;;;;15.86;56.77;102175.66;5028524;28;19920;-77
2022/08/06 04:32:24;;;;;;;;;;;;;;;15.88;57.11;102181.72;5006774;28;19926;-77
2022/08/06 04:34:51;;;;;;;;;;;;;;;15.79;57.60;102185.41;5011303;28;19967;-77
2022/08/06 04:37:17;;;;;;;;;;;;;;;15.74;57.81;102186.38;5011676;28;19921;-77
2022/08/06 04:39:43;;;;;;;;;;;;;;;15.88;56.99;102192.22;5024591;28;20359;-77
2022/08/06 04:42:08;;;;;;;;;;;;;;;15.99;57.09;102195.47;5023811;28;19921;-77
2022/08/06 04:44:34;;;;;;;;;;;;;;;15.88;57.24;102200.06;5024020;28;19924;-77
2022/08/06 04:47:01;;;;;;;;;;;;;;;15.97;56.15;102197.28;5016705;28;20037;-77
2022/08/06 04:49:26;;;;;;;;;;;;;;;15.95;56.32;102196.44;5022721;28;20381;-77
2022/08/06 04:51:52;;;;;;;;;;;;;;;15.95;56.25;102197.31;5025517;28;19970;-77
2022/08/06 04:54:17;;;;;;;;;;;;;;;16.04;56.63;102198.88;5029071;28;19968;-77
2022/08/06 04:56:43;;;;;;;;;;;;;;;15.89;56.66;102202.69;5033563;28;20362;-77
2022/08/06 04:59:08;;;;;;;;;;;;;;;15.88;56.71;102206.19;5028915;28;20389;-77
2022/08/06 05:01:34;;;;;;;;;;;;;;;16.09;56.42;102210.13;5027904;28;19924;-77
2022/08/06 05:03:59;;;;;;;;;;;;;;;16.04;56.03;102208.50;5043465;28;19928;-77
2022/08/06 05:06:25;;;;;;;;;;;;;;;15.99;56.67;102205.94;5048649;28;19919;-77
2022/08/06 05:08:53;;;;;;;;;;;;;;;15.88;56.69;102219.28;5023595;28;19921;-77
2022/08/06 05:11:22;;;;;;;;;;;;;;;15.84;57.02;102216.75;5048256;28;19932;-77
2022/08/06 05:13:52;;;;;;;;;;;;;;;15.94;56.76;102220.91;5036478;28;19917;-77
2022/08/06 05:16:19;;;;;;;;;;;;;;;15.83;56.72;102221.16;5049334;28;19921;-77
2022/08/06 05:18:49;;;;;;;;;;;;;;;15.95;57.27;102228.75;5041659;28;19920;-77
2022/08/06 05:21:17;;;;;;;;;;;;;;;15.99;56.31;102226.91;5046488;28;20592;-77
2022/08/06 05:23:44;;;;;;;;;;;;;;;15.96;57.04;102226.97;5025467;28;19921;-77
2022/08/06 05:26:10;;;;;;;;;;;;;;;15.93;56.76;102237.53;5042736;28;19967;-77
2022/08/06 05:28:38;;;;;;;;;;;;;;;15.92;57.42;102235.81;5044646;28;19916;-77
2022/08/06 05:31:04;;;;;;;;;;;;;;;15.85;57.12;102242.06;5048067;28;19999;-77
2022/08/06 05:33:31;;;;;;;;;;;;;;;16.07;56.53;102243.38;5033861;28;20011;-77
2022/08/06 05:35:57;;;;;;;;;;;;;;;16.02;55.68;102253.06;5040625;28;19932;-77
2022/08/06 05:38:22;;;;;;;;;;;;;;;15.97;57.08;102254.94;5051593;28;20377;-77
2022/08/06 05:40:48;;;;;;;;;;;;;;;16.02;57.04;102260.09;5042565;28;19927;-77
2022/08/06 05:43:13;;;;;;;;;;;;;;;16.03;56.76;102256.56;5047618;28;20436;-77
2022/08/06 05:45:40;;;;;;;;;;;;;;;16.09;56.87;102256.44;5060805;28;20032;-77
2022/08/06 05:48:06;;;;;;;;;;;;;;;16.12;56.48;102259.00;5041520;28;19912;-77
2022/08/06 05:50:40;;;;;;;;;;;;;;;15.97;55.96;102260.16;5057305;28;19917;-77
2022/08/06 05:53:09;;;;;;;;;;;;;;;16.03;56.69;102261.81;5027837;28;19999;-77
2022/08/06 05:55:38;;;;;;;;;;;;;;;16.15;56.09;102259.81;5035793;28;19921;-77
2022/08/06 05:58:10;;;;;;;;;;;;;;;16.07;57.09;102266.97;5048113;28;19929;-77
2022/08/06 06:00:37;;;;;;;;;;;;;;;16.11;57.11;102266.00;5044924;28;20468;-77
2022/08/06 06:03:04;;;;;;;;;;;;;;;16.14;56.96;102259.81;5047454;28;20041;-77
2022/08/06 06:05:30;;;;;;;;;;;;;;;16.15;57.33;102266.81;5053394;28;19927;-76
2022/08/06 06:07:55;;;;;;;;;;;;;;;16.10;57.94;102261.66;5050299;28;19929;-77
2022/08/06 06:10:22;;;;;;;;;;;;;;;16.20;57.44;102267.56;5025989;28;19990;-77
2022/08/06 06:12:48;;;;;;;;;;;;;;;16.09;57.58;102272.16;5038040;28;19964;-77
2022/08/06 06:15:14;;;;;;;;;;;;;;;16.04;56.24;102268.78;5012960;28;19956;-77
2022/08/06 06:17:51;;;;;;;;;;;;;;;16.09;56.61;102269.56;5009177;28;20589;-77
2022/08/06 06:20:29;;;;;;;;;;;;;;;16.27;56.74;102266.56;5021053;28;20390;-77
2022/08/06 06:23:00;;;;;;;;;;;;;;;16.24;56.98;102262.25;5044169;28;19935;-77
2022/08/06 06:25:29;;;;;;;;;;;;;;;16.27;56.78;102266.56;5042420;28;19921;-77
2022/08/06 06:28:00;;;;;;;;;;;;;;;16.32;56.39;102268.19;5040669;28;19928;-77
2022/08/06 06:30:31;;;;;;;;;;;;;;;16.43;56.54;102275.84;5042857;28;19921;-77
2022/08/06 06:33:10;;;;;;;;;;;;;;;16.47;56.39;102273.09;5028000;28;20004;-77
2022/08/06 06:35:56;;;;;;;;;;;;;;;16.35;56.59;102270.75;5054075;28;20008;-77
2022/08/06 06:38:31;;;;;;;;;;;;;;;16.45;58.01;102280.16;5033130;28;19970;-77
2022/08/06 06:40:59;;;;;;;;;;;;;;;16.43;57.28;102279.31;5035794;28;19928;-77
2022/08/06 06:43:31;;;;;;;;;;;;;;;16.42;57.66;102285.47;5031267;28;19927;-77
2022/08/06 06:46:06;;;;;;;;;;;;;;;16.47;56.86;102280.97;5032461;28;19928;-77
2022/08/06 06:48:32;;;;;;;;;;;;;;;16.52;57.44;102286.97;5043682;28;20309;-77
2022/08/06 06:51:03;;;;;;;;;;;;;;;16.43;57.32;102283.72;5050042;28;19913;-77
2022/08/06 06:53:30;;;;;;;;;;;;;;;16.47;56.50;102287.97;5041986;28;19921;-77
2022/08/06 06:55:56;;;;;;;;;;;;;;;16.45;56.66;102290.66;5032998;28;19920;-77
2022/08/06 06:58:37;;;;;;;;;;;;;;;16.42;55.61;102290.72;5029674;28;19921;-77
2022/08/06 07:01:08;;;;;;;;;;;;;;;16.41;56.74;102293.34;5023698;28;19924;-75
2022/08/06 07:03:36;;;;;;;;;;;;;;;16.49;56.78;102294.91;5050837;28;20405;-77
2022/08/06 07:06:02;;;;;;;;;;;;;;;16.63;57.21;102296.38;5034613;28;19917;-77
2022/08/06 07:08:28;;;;;;;;;;;;;;;16.50;56.92;102293.16;5045752;28;19929;-77
2022/08/06 07:10:55;;;;;;;;;;;;;;;16.53;56.01;102296.59;5037442;28;19965;-77
2022/08/06 07:13:21;;;;;;;;;;;;;;;16.58;56.34;102301.72;5030477;28;20020;-77
2022/08/06 07:15:47;;;;;;;;;;;;;;;16.53;56.20;102299.22;5050104;28;19925;-76
2022/08/06 07:18:13;;;;;;;;;;;;;;;16.66;55.06;102305.06;5049282;28;19921;-77
2022/08/06 07:20:39;;;;;;;;;;;;;;;16.68;54.69;102305.00;5044691;28;19952;-77
2022/08/06 07:23:06;;;;;;;;;;;;;;;16.74;55.04;102310.16;5032507;28;19921;-77
2022/08/06 07:25:36;;;;;;;;;;;;;;;16.79;55.29;102303.06;5032471;28;19925;-77
2022/08/06 07:28:02;;;;;;;;;;;;;;;16.75;55.50;102317.16;5046756;28;19924;-77
2022/08/06 07:30:28;;;;;;;;;;;;;;;16.75;55.33;102317.16;5012280;28;20377;-77
2022/08/06 07:32:54;;;;;;;;;;;;;;;16.74;55.16;102308.41;5050682;28;19927;-77
2022/08/06 07:35:19;;;;;;;;;;;;;;;16.85;55.62;102310.78;5013327;28;19929;-76
2022/08/06 07:37:50;;;;;;;;;;;;;;;16.84;55.44;102315.19;5044615;28;19928;-77
2022/08/06 07:40:20;;;;;;;;;;;;;;;16.93;55.47;102309.72;5028221;28;19928;-77
2022/08/06 07:42:50;;;;;;;;;;;;;;;16.88;56.15;102311.56;5043316;28;19960;-77
2022/08/06 07:45:15;;;;;;;;;;;;;;;16.97;55.32;102306.13;5043729;28;19995;-77
2022/08/06 07:47:42;;;;;;;;;;;;;;;16.87;55.30;102303.75;5030305;28;19996;-76
2022/08/06 07:50:10;;;;;;;;;;;;;;;16.89;55.57;102309.81;5030627;28;19966;-76
2022/08/06 07:52:38;;;;;;;;;;;;;;;16.89;55.25;102309.81;5040103;28;19985;-77
2022/08/06 07:55:04;;;;;;;;;;;;;;;16.95;55.06;102300.06;5048589;28;20380;-77
2022/08/06 07:57:30;;;;;;;;;;;;;;;16.93;54.86;102301.00;5045449;28;19912;-77
2022/08/06 07:59:55;;;;;;;;;;;;;;;16.92;54.29;102292.25;5056411;28;21613;-76
2022/08/06 08:02:23;;;;;;;;;;;;;;;16.97;54.73;102295.63;5029417;28;20282;-77
2022/08/06 08:07:34;;;;;;;;;;;;;;;17.14;52.64;102295.25;5038842;28;19932;-77
2022/08/06 08:10:00;;;;;;;;;;;;;;;17.12;52.16;102294.38;5031910;28;19924;-77
2022/08/06 08:12:26;;;;;;;;;;;;;;;17.00;52.88;102295.53;5016680;28;19925;-77
2022/08/06 08:14:51;;;;;;;;;;;;;;;17.12;52.17;102291.75;5047745;28;19935;-77
2022/08/06 08:17:17;;;;;;;;;;;;;;;17.16;52.32;102300.44;5032259;28;19921;-77
2022/08/06 08:19:43;;;;;;;;;;;;;;;17.10;52.43;102301.44;5048365;28;19974;-77
2022/08/06 08:22:10;;;;;;;;;;;;;;;17.08;51.84;102299.75;5044334;28;19929;-77
2022/08/06 08:24:36;;;;;;;;;;;;;;;17.20;52.01;102294.22;5033281;28;19959;-77
2022/08/06 08:27:03;;;;;;;;;;;;;;;17.16;51.41;102300.44;5046557;28;19999;-77
2022/08/06 08:29:29;;;;;;;;;;;;;;;17.25;51.67;102301.09;5024076;28;19984;-77
2022/08/06 08:31:54;;;;;;;;;;;;;;;17.23;52.17;102291.53;5048292;28;19921;-77
2022/08/06 08:34:20;;;;;;;;;;;;;;;17.21;52.32;102296.78;5012322;28;20301;-77
2022/08/06 08:36:45;;;;;;;;;;;;;;;17.20;51.69;102288.97;5035868;28;20379;-77
2022/08/06 08:39:11;;;;;;;;;;;;;;;17.39;51.82;102298.09;5044057;28;20052;-77
2022/08/06 08:41:38;;;;;;;;;;;;;;;17.41;49.63;102291.91;5048395;28;19929;-77
2022/08/06 08:44:05;;;;;;;;;;;;;;;17.45;49.13;102290.06;5046886;28;20011;-77
2022/08/06 08:46:37;;;;;;;;;;;;;;;17.49;49.60;102299.63;5045969;28;20403;-77
2022/08/06 08:49:04;;;;;;;;;;;;;;;17.33;50.52;102290.38;5011630;28;19949;-77
2022/08/06 08:51:31;;;;;;;;;;;;;;;17.28;48.96;102284.38;5031205;28;19929;-77
2022/08/06 08:53:59;;;;;;;;;;;;;;;17.35;47.63;102284.19;5030125;28;19928;-77
2022/08/06 08:56:25;;;;;;;;;;;;;;;17.31;48.36;102285.19;5018609;28;19921;-77
2022/08/06 08:58:51;;;;;;;;;;;;;;;17.32;48.46;102284.25;5047389;28;19939;-77
2022/08/06 09:01:17;;;;;;;;;;;;;;;17.38;47.76;102286.72;5052460;28;19927;-77
2022/08/06 09:03:43;;;;;;;;;;;;;;;17.44;47.16;102281.31;5048902;28;19924;-77
2022/08/06 09:06:08;;;;;;;;;;;;;;;17.46;46.96;102281.31;5010773;28;20015;-77
2022/08/06 09:08:36;;;;;;;;;;;;;;;17.49;46.96;102287.34;5028538;28;19951;-76
2022/08/06 09:11:02;;;;;;;;;;;;;;;17.48;47.46;102285.59;5045059;28;20528;-77
2022/08/06 09:13:27;;;;;;;;;;;;;;;17.56;47.60;102290.69;5046908;28;19921;-77
2022/08/06 09:15:53;;;;;;;;;;;;;;;17.57;46.96;102284.50;5051761;28;20431;-77
2022/08/06 09:18:19;;;;;;;;;;;;;;;17.58;47.54;102289.75;5050995;28;20320;-76
2022/08/06 09:20:45;;;;;;;;;;;;;;;17.58;47.93;102283.63;5047718;28;19917;-76
2022/08/06 09:23:12;;;;;;;;;;;;;;;17.66;47.20;102286.94;5041850;28;19928;-77
2022/08/06 09:25:37;;;;;;;;;;;;;;;17.67;47.29;102287.78;5023761;28;19921;-77
2022/08/06 09:28:04;;;;;;;;;;;;;;;17.74;46.90;102289.38;5029037;28;19932;-77
2022/08/06 09:30:30;;;;;;;;;;;;;;;17.71;47.20;102286.81;5020881;28;19916;-76
2022/08/06 09:32:56;;;;;;;;;;;;;;;17.73;46.28;102288.50;5023961;28;19952;-77
2022/08/06 09:35:26;;;;;;;;;;;;;;;17.68;45.94;102282.47;5020642;28;19952;-77
2022/08/06 09:37:58;;;;;;;;;;;;;;;17.60;46.12;102293.22;5023095;28;20650;-76
2022/08/06 09:40:24;;;;;;;;;;;;;;;17.71;45.42;102285.03;5027996;28;19942;-76
2022/08/06 09:42:50;;;;;;;;;;;;;;;17.77;45.21;102291.91;5041445;28;19917;-76
2022/08/06 09:45:17;;;;;;;;;;;;;;;17.73;45.56;102290.25;5044830;28;19920;-77
2022/08/06 09:47:43;;;;;;;;;;;;;;;17.74;45.52;102290.22;5026991;28;19967;-77
2022/08/06 09:50:09;;;;;;;;;;;;;;;17.76;46.75;102288.41;5026690;28;19928;-76
2022/08/06 09:52:34;;;;;;;;;;;;;;;17.66;46.67;102292.19;5032311;28;19950;-76
2022/08/06 09:54:59;;;;;;;;;;;;;;;17.70;46.76;102288.59;5025195;28;19931;-76
2022/08/06 09:57:25;;;;;;;;;;;;;;;17.71;47.54;102287.66;5025145;28;20023;-76
2022/08/06 09:59:51;;;;;;;;;;;;;;;17.75;44.49;102286.69;5026440;28;19932;-77
2022/08/06 10:02:18;;;;;;;;;;;;;;;17.76;45.73;102282.28;5049080;28;19920;-77
2022/08/06 10:04:44;;;;;;;;;;;;;;;17.75;43.41;102272.69;5022033;28;19956;-77
2022/08/06 10:07:09;;;;;;;;;;;;;;;17.77;43.08;102284.88;5042979;28;19998;-77
2022/08/06 10:09:37;;;;;;;;;;;;;;;17.77;43.65;102279.63;5043566;28;19925;-77
2022/08/06 10:12:16;;;;;;;;;;;;;;;17.80;44.28;102278.69;5050199;28;19923;-77
2022/08/06 10:14:41;;;;;;;;;;;;;;;17.81;45.13;102280.41;5027503;28;20008;-77
2022/08/06 10:17:11;;;;;;;;;;;;;;;17.86;44.38;102289.00;5033849;28;20015;-76
2022/08/06 10:19:37;;;;;;;;;;;;;;;17.85;44.07;102282.06;5035427;28;20313;-76
2022/08/06 10:22:07;;;;;;;;;;;;;;;17.89;43.17;102278.41;5054356;28;19920;-76
2022/08/06 10:24:35;;;;;;;;;;;;;;;17.98;44.18;102281.66;5033106;28;19921;-76
2022/08/06 10:27:01;;;;;;;;;;;;;;;17.97;44.15;102273.84;5049779;28;19917;-76
2022/08/06 10:29:27;;;;;;;;;;;;;;;17.88;45.02;102277.59;5047492;28;19921;-76
2022/08/06 10:31:53;;;;;;;;;;;;;;;17.95;44.89;102273.00;5051757;28;19924;-76
2022/08/06 10:34:26;;;;;;;;;;;;;;;18.05;44.99;102279.72;5048295;28;20007;-77
2022/08/06 10:36:54;;;;;;;;;;;;;;;18.09;45.52;102273.50;5048403;28;19928;-77
2022/08/06 10:39:26;;;;;;;;;;;;;;;18.07;43.89;102277.91;5054764;28;19921;-77
2022/08/06 10:41:54;;;;;;;;;;;;;;;18.12;43.97;102270.78;5049023;28;19944;-77
2022/08/06 10:44:19;;;;;;;;;;;;;;;18.17;44.03;102266.22;5005627;28;20021;-77
2022/08/06 10:46:45;;;;;;;;;;;;;;;18.21;42.57;102260.00;5035049;28;20012;-77
2022/08/06 10:49:13;;;;;;;;;;;;;;;18.24;42.61;102262.53;5049606;28;19925;-77
2022/08/06 10:51:39;;;;;;;;;;;;;;;18.24;42.28;102259.91;5033903;28;20043;-77
2022/08/06 10:54:04;;;;;;;;;;;;;;;18.27;43.36;102265.06;5032470;28;19924;-77
2022/08/06 10:56:30;;;;;;;;;;;;;;;18.38;43.75;102262.13;5045561;28;20016;-77
2022/08/06 10:58:56;;;;;;;;;;;;;;;18.36;42.30;102262.13;5046745;28;20703;-77
2022/08/06 11:01:28;;;;;;;;;;;;;;;18.34;41.73;102256.06;5047219;28;19982;-77
2022/08/06 11:04:12;;;;;;;;;;;;;;;18.32;42.83;102254.41;5052250;28;19927;-77
2022/08/06 11:06:52;;;;;;;;;;;;;;;18.28;42.12;102260.66;5046962;28;19951;-76
2022/08/06 11:09:38;;;;;;;;;;;;;;;18.23;42.97;102252.03;5030845;28;19924;-76
2022/08/06 11:12:06;;;;;;;;;;;;;;;18.34;42.96;102242.91;5013559;28;19925;-76
2022/08/06 11:14:33;;;;;;;;;;;;;;;18.44;42.47;102246.16;5045839;28;19960;-76
2022/08/06 11:16:59;;;;;;;;;;;;;;;18.48;42.74;102238.13;5046738;28;19929;-76
2022/08/06 11:19:57;;;;;;;;;;;;;;;18.48;41.96;102240.75;5048210;28;20011;-76
2022/08/06 11:22:34;;;;;;;;;;;;;;;18.42;42.96;102242.72;5027617;28;19920;-76
2022/08/06 11:25:00;;;;;;;;;;;;;;;18.41;42.45;102236.56;5051563;28;20487;-76
2022/08/06 11:27:44;;;;;;;;;;;;;;;18.37;41.35;102234.06;5044456;28;19921;-76
2022/08/06 11:30:10;;;;;;;;;;;;;;;18.36;41.78;102232.38;5048699;28;19952;-76
2022/08/06 11:32:47;;;;;;;;;;;;;;;18.34;42.52;102219.25;5029286;28;19967;-76
2022/08/06 11:35:31;;;;;;;;;;;;;;;18.33;41.68;102230.69;5029103;28;20020;-77
2022/08/06 11:37:56;;;;;;;;;;;;;;;18.39;43.20;102232.28;5029345;28;19928;-77
2022/08/06 11:40:24;;;;;;;;;;;;;;;18.34;39.28;102221.00;5045848;28;19987;-77
2022/08/06 11:42:49;;;;;;;;;;;;;;;18.46;41.73;102220.66;5044908;28;19912;-77
2022/08/06 11:45:15;;;;;;;;;;;;;;;18.51;42.15;102224.03;5015721;28;19984;-77
2022/08/06 11:48:17;;;;;;;;;;;;;;;18.50;41.62;102227.56;5049318;28;19921;-76
2022/08/06 11:50:42;;;;;;;;;;;;;;;18.45;40.75;102225.06;4941471;28;20402;-77
2022/08/06 11:53:08;;;;;;;;;;;;;;;18.49;41.69;102231.97;5022246;28;19924;-77
2022/08/06 11:55:53;;;;;;;;;;;;;;;18.48;39.95;102229.41;5023981;28;19925;-77
2022/08/06 11:58:20;;;;;;;;;;;;;;;18.48;39.22;102230.22;5033178;28;19917;-77
2022/08/06 12:00:59;;;;;;;;;;;;;;;18.51;54.66;102242.47;5046659;28;19970;-77
2022/08/06 12:03:37;;;;;;;;;;;;;;;18.50;48.19;102230.19;5032348;28;20550;-77
2022/08/06 12:06:18;;;;;;;;;;;;;;;18.49;43.60;102220.56;5034952;28;19932;-77
2022/08/06 12:09:03;;;;;;;;;;;;;;;18.49;42.64;102215.31;5045781;28;19929;-77
2022/08/06 12:11:30;;;;;;;;;;;;;;;18.55;39.61;102204.59;5040768;28;19974;-76
2022/08/06 12:13:55;;;;;;;;;;;;;;;18.62;38.91;102207.00;5027647;28;20002;-76
2022/08/06 12:16:30;;;;;;;;;;;;;;;18.66;39.31;102210.38;5009587;28;20371;-76
2022/08/06 12:18:55;;;;;;;;;;;;;;;18.70;38.77;102202.34;5048929;28;21402;-77
2022/08/06 12:21:21;;;;;;;;;;;;;;;18.74;38.57;102197.84;5047666;28;19924;-77
2022/08/06 12:23:48;;;;;;;;;;;;;;;18.76;39.01;102195.16;5052002;28;19929;-77
2022/08/06 12:26:15;;;;;;;;;;;;;;;18.77;38.50;102202.16;5035279;28;19921;-77
2022/08/06 12:28:41;;;;;;;;;;;;;;;18.76;39.47;102188.13;5050920;28;19921;-76
2022/08/06 12:31:06;;;;;;;;;;;;;;;18.70;38.68;102196.22;5029565;28;19925;-77
2022/08/06 12:33:40;;;;;;;;;;;;;;;18.66;38.28;102189.31;5051469;28;19950;-77
2022/08/06 12:36:05;;;;;;;;;;;;;;;18.57;37.51;102192.28;5045892;28;20282;-77
2022/08/06 12:38:32;;;;;;;;;;;;;;;18.62;37.45;102185.09;5046933;28;19952;-77
2022/08/06 12:40:59;;;;;;;;;;;;;;;18.69;37.39;102176.91;5013667;28;20070;-77
2022/08/06 12:43:25;;;;;;;;;;;;;;;18.73;37.45;102174.19;5031959;28;20294;-77